createdAt,value
2017-07-08T00:02:18.591Z,94.20
2017-07-08T00:04:45.046Z,94.20
2017-07-08T00:07:12.225Z,94.20
2017-07-08T00:09:38.696Z,93.90
2017-07-08T00:12:05.163Z,94.30
2017-07-08T00:14:31.594Z,94.30
2017-07-08T00:16:58.148Z,94.30
2017-07-08T00:19:24.707Z,94.30
2017-07-08T00:21:51.174Z,94.10
2017-07-08T00:24:17.721Z,94.20
2017-07-08T00:26:44.213Z,94.20
2017-07-08T00:29:10.736Z,94.20
2017-07-08T00:31:37.191Z,94.10
2017-07-08T00:34:03.683Z,94.20
2017-07-08T00:36:30.106Z,94.20
2017-07-08T00:38:56.662Z,94.10
2017-07-08T00:41:23.117Z,94.10
2017-07-08T00:43:49.557Z,94.20
2017-07-08T00:49:08.681Z,94.20
2017-07-08T00:51:35.780Z,94.20
2017-07-08T00:54:02.879Z,94.10
2017-07-08T00:56:29.697Z,94.10
2017-07-08T00:58:56.236Z,94.20
2017-07-08T01:01:23.295Z,94.20
2017-07-08T01:03:50.480Z,94.10
2017-07-08T01:06:16.924Z,94.10
2017-07-08T01:08:44.126Z,94.10
2017-07-08T01:11:10.614Z,94.10
2017-07-08T01:13:37.116Z,94.10
2017-07-08T01:16:03.562Z,94.20
2017-07-08T01:18:30.731Z,94.40
2017-07-08T01:20:57.925Z,94.30
2017-07-08T01:23:24.343Z,94.30
2017-07-08T01:25:50.773Z,94.20
2017-07-08T01:28:17.206Z,94.40
2017-07-08T01:30:43.671Z,94.30
2017-07-08T01:33:10.200Z,94.40
2017-07-08T01:35:36.682Z,94.50
2017-07-08T01:38:03.214Z,94.50
2017-07-08T01:40:29.680Z,94.50
2017-07-08T01:42:56.148Z,94.70
2017-07-08T01:45:22.592Z,94.80
2017-07-08T01:47:49.125Z,94.80
2017-07-08T01:50:16.347Z,94.80
2017-07-08T01:52:42.803Z,94.80
2017-07-08T01:55:09.314Z,95.10
2017-07-08T01:57:36.533Z,94.70
2017-07-08T02:00:03.064Z,94.70
2017-07-08T02:02:29.497Z,94.70
2017-07-08T02:04:56.649Z,94.70
2017-07-08T02:07:23.088Z,94.70
2017-07-08T02:09:49.743Z,94.70
2017-07-08T02:12:16.151Z,94.80
2017-07-08T02:14:43.324Z,95.00
2017-07-08T02:17:10.808Z,95.00
2017-07-08T02:19:37.265Z,94.90
2017-07-08T02:22:03.709Z,95.00
2017-07-08T02:24:30.921Z,94.90
2017-07-08T02:26:57.946Z,94.90
2017-07-08T02:29:25.108Z,95.00
2017-07-08T02:31:51.514Z,94.90
2017-07-08T02:34:17.940Z,94.90
2017-07-08T02:36:45.180Z,94.90
2017-07-08T02:39:11.604Z,94.90
2017-07-08T02:41:38.051Z,94.70
2017-07-08T02:44:04.591Z,94.90
2017-07-08T02:46:31.040Z,94.80
2017-07-08T02:48:58.385Z,94.80
2017-07-08T02:51:24.848Z,94.80
2017-07-08T02:53:51.657Z,94.80
2017-07-08T02:56:18.100Z,94.90
2017-07-08T02:58:44.623Z,94.90
2017-07-08T03:01:11.079Z,94.80
2017-07-08T03:03:37.547Z,94.70
2017-07-08T03:06:04.809Z,94.70
2017-07-08T03:08:31.300Z,94.60
2017-07-08T03:10:57.774Z,94.60
2017-07-08T03:13:24.313Z,94.60
2017-07-08T03:15:50.787Z,94.70
2017-07-08T03:18:17.720Z,94.70
2017-07-08T03:20:45.866Z,94.70
2017-07-08T03:23:12.299Z,94.50
2017-07-08T03:25:38.762Z,94.40
2017-07-08T03:28:05.202Z,94.40
2017-07-08T03:30:31.668Z,94.60
2017-07-08T03:32:58.109Z,94.60
2017-07-08T03:35:24.564Z,94.60
2017-07-08T03:37:51.125Z,94.60
2017-07-08T03:40:17.570Z,94.50
2017-07-08T03:42:44.742Z,94.50
2017-07-08T03:45:11.931Z,94.90
2017-07-08T03:47:38.367Z,94.50
2017-07-08T03:50:04.941Z,94.50
2017-07-08T03:52:31.805Z,94.40
2017-07-08T03:54:58.281Z,94.40
2017-07-08T03:57:24.725Z,94.30
2017-07-08T03:59:51.227Z,94.30
2017-07-08T04:02:17.693Z,93.80
2017-07-08T04:04:44.188Z,93.30
2017-07-08T04:07:10.637Z,92.90
2017-07-08T04:09:37.920Z,92.60
2017-07-08T04:12:04.360Z,92.60
2017-07-08T04:14:31.522Z,92.10
2017-07-08T04:16:57.947Z,92.00
2017-07-08T04:19:24.381Z,91.70
2017-07-08T04:21:51.131Z,91.00
2017-07-08T04:24:17.540Z,90.60
2017-07-08T04:26:43.983Z,90.20
2017-07-08T04:29:10.451Z,90.00
2017-07-08T04:31:36.946Z,89.40
2017-07-08T04:34:03.483Z,88.50
2017-07-08T04:36:30.783Z,86.40
2017-07-08T04:38:57.209Z,85.60
2017-07-08T04:41:24.474Z,84.50
2017-07-08T04:43:50.966Z,85.10
2017-07-08T04:46:32.277Z,85.40
2017-07-08T04:48:58.707Z,85.80
2017-07-08T04:51:25.141Z,86.90
2017-07-08T04:53:52.321Z,89.50
2017-07-08T04:56:19.613Z,89.50
2017-07-08T04:58:46.062Z,89.40
2017-07-08T05:01:12.482Z,90.10
2017-07-08T05:03:38.926Z,90.50
2017-07-08T05:06:05.380Z,90.60
2017-07-08T05:08:31.889Z,90.60
2017-07-08T05:10:58.359Z,90.80
2017-07-08T05:13:24.842Z,91.00
2017-07-08T05:15:51.296Z,91.10
2017-07-08T05:18:17.748Z,91.20
2017-07-08T05:20:44.231Z,91.40
2017-07-08T05:23:11.613Z,91.60
2017-07-08T05:25:38.069Z,91.80
2017-07-08T05:28:04.515Z,91.80
2017-07-08T05:30:30.962Z,91.90
2017-07-08T05:32:57.480Z,92.00
2017-07-08T05:35:23.949Z,92.00
2017-07-08T05:37:50.488Z,92.00
2017-07-08T05:40:16.939Z,91.90
2017-07-08T05:42:44.219Z,92.00
2017-07-08T05:45:10.679Z,92.00
2017-07-08T05:47:37.166Z,91.90
2017-07-08T05:50:04.240Z,91.80
2017-07-08T05:52:30.759Z,91.80
2017-07-08T05:54:57.548Z,91.60
2017-07-08T05:57:23.996Z,91.80
2017-07-08T05:59:50.438Z,91.90
2017-07-08T06:02:17.100Z,91.80
2017-07-08T06:04:43.581Z,91.70
2017-07-08T06:07:10.029Z,91.90
2017-07-08T06:09:36.591Z,92.00
2017-07-08T06:12:03.063Z,92.00
2017-07-08T06:14:29.497Z,92.00
2017-07-08T06:16:55.969Z,91.90
2017-07-08T06:19:22.494Z,92.00
2017-07-08T06:21:49.039Z,91.90
2017-07-08T06:24:16.237Z,91.70
2017-07-08T06:26:42.785Z,91.60
2017-07-08T06:29:09.263Z,91.40
2017-07-08T06:31:35.799Z,91.50
2017-07-08T06:34:02.218Z,91.40
2017-07-08T06:36:28.712Z,91.40
2017-07-08T06:38:55.190Z,91.40
2017-07-08T06:41:21.656Z,91.20
2017-07-08T06:43:48.790Z,91.10
2017-07-08T06:46:16.010Z,90.70
2017-07-08T06:48:42.467Z,90.60
2017-07-08T06:51:08.981Z,90.30
2017-07-08T06:53:35.578Z,90.10
2017-07-08T06:56:02.655Z,88.30
2017-07-08T06:58:29.373Z,87.90
2017-07-08T07:00:56.596Z,87.60
2017-07-08T07:03:23.209Z,87.00
2017-07-08T07:05:49.732Z,85.50
2017-07-08T07:08:16.247Z,84.40
2017-07-08T07:10:42.763Z,84.10
2017-07-08T07:13:10.263Z,82.80
2017-07-08T07:15:36.795Z,82.80
2017-07-08T07:18:04.091Z,68.90
2017-07-08T07:20:30.653Z,68.90
2017-07-08T07:22:57.616Z,65.30
2017-07-08T07:25:24.483Z,59.50
2017-07-08T07:27:50.926Z,55.80
2017-07-08T07:30:18.319Z,49.60
2017-07-08T07:32:44.873Z,49.50
2017-07-08T07:35:11.434Z,46.10
2017-07-08T07:37:38.298Z,44.30
2017-07-08T07:40:05.366Z,43.20
2017-07-08T07:42:31.926Z,44.20
2017-07-08T07:45:13.315Z,45.80
2017-07-08T07:47:39.871Z,47.20
2017-07-08T07:50:06.351Z,48.20
2017-07-08T07:52:47.702Z,50.40
2017-07-08T07:55:14.916Z,53.10
2017-07-08T07:57:41.360Z,53.10
2017-07-08T08:00:07.902Z,54.30
2017-07-08T08:02:34.382Z,55.90
2017-07-08T08:05:00.917Z,57.00
2017-07-08T08:07:27.438Z,57.30
2017-07-08T08:09:53.907Z,57.90
2017-07-08T08:12:20.400Z,58.30
2017-07-08T08:14:47.471Z,58.50
2017-07-08T08:17:13.903Z,58.60
2017-07-08T08:19:41.087Z,59.30
2017-07-08T08:22:07.645Z,59.20
2017-07-08T08:24:34.202Z,60.10
2017-07-08T08:27:00.643Z,60.90
2017-07-08T08:29:27.934Z,60.00
2017-07-08T08:31:54.493Z,59.90
2017-07-08T08:34:21.509Z,58.90
2017-07-08T08:36:47.977Z,57.90
2017-07-08T08:39:14.580Z,57.10
2017-07-08T08:41:41.112Z,55.40
2017-07-08T08:44:08.318Z,54.70
2017-07-08T08:46:34.778Z,54.70
2017-07-08T08:49:01.199Z,54.70
2017-07-08T08:51:28.379Z,55.50
2017-07-08T08:53:55.864Z,55.10
2017-07-08T08:56:23.046Z,54.40
2017-07-08T08:58:49.760Z,54.40
2017-07-08T09:01:16.223Z,55.10
2017-07-08T09:03:42.675Z,54.70
2017-07-08T09:06:09.170Z,54.10
2017-07-08T09:08:36.658Z,53.60
2017-07-08T09:11:03.212Z,53.50
2017-07-08T09:13:29.680Z,54.00
2017-07-08T09:15:56.229Z,54.00
2017-07-08T09:18:24.082Z,53.30
2017-07-08T09:21:05.502Z,53.50
2017-07-08T09:23:31.960Z,53.00
2017-07-08T09:25:58.517Z,52.80
2017-07-08T09:28:24.974Z,52.60
2017-07-08T09:30:51.533Z,52.10
2017-07-08T09:33:19.273Z,52.00
2017-07-08T09:35:45.791Z,52.10
2017-07-08T09:38:12.333Z,51.90
2017-07-08T09:40:38.885Z,51.00
2017-07-08T09:43:05.347Z,50.80
2017-07-08T09:45:31.904Z,50.50
2017-07-08T09:48:00.204Z,50.80
2017-07-08T09:50:27.275Z,50.90
2017-07-08T09:52:53.741Z,52.30
2017-07-08T09:55:20.228Z,52.40
2017-07-08T09:57:46.721Z,52.50
2017-07-08T10:00:18.657Z,52.60
2017-07-08T10:02:46.045Z,52.60
2017-07-08T10:05:12.648Z,51.50
2017-07-08T10:07:39.400Z,50.80
2017-07-08T10:10:06.869Z,49.90
2017-07-08T10:12:34.392Z,50.80
2017-07-08T10:15:00.871Z,50.80
2017-07-08T10:17:27.557Z,50.30
2017-07-08T10:19:55.078Z,49.80
2017-07-08T10:22:21.839Z,50.00
2017-07-08T10:27:36.019Z,50.10
2017-07-08T10:30:03.224Z,49.80
2017-07-08T10:32:29.655Z,49.80
2017-07-08T10:34:56.108Z,49.50
2017-07-08T10:37:22.672Z,49.30
2017-07-08T10:39:49.108Z,48.10
2017-07-08T10:42:16.830Z,49.00
2017-07-08T10:44:43.369Z,48.40
2017-07-08T10:47:09.856Z,48.30
2017-07-08T10:49:36.329Z,48.60
2017-07-08T10:52:02.800Z,47.50
2017-07-08T10:54:29.243Z,47.60
2017-07-08T10:56:55.780Z,47.70
2017-07-08T10:59:22.284Z,47.50
2017-07-08T11:01:48.762Z,47.60
2017-07-08T11:04:15.324Z,47.40
2017-07-08T11:06:42.802Z,47.90
2017-07-08T11:09:09.465Z,47.90
2017-07-08T11:11:35.947Z,47.10
2017-07-08T11:16:02.887Z,47.30
2017-07-08T11:18:29.617Z,47.50
2017-07-08T11:20:56.176Z,47.40
2017-07-08T11:23:22.826Z,47.40
2017-07-08T11:25:50.685Z,48.10
2017-07-08T11:28:17.266Z,48.10
2017-07-08T11:30:44.455Z,48.10
2017-07-08T11:33:10.891Z,48.10
2017-07-08T11:35:38.121Z,47.30
2017-07-08T11:38:04.746Z,47.30
2017-07-08T11:40:31.247Z,47.30
2017-07-08T11:42:59.187Z,47.20
2017-07-08T11:45:26.671Z,47.60
2017-07-08T11:47:54.049Z,47.60
2017-07-08T11:50:21.073Z,46.50
2017-07-08T11:52:47.534Z,46.40
2017-07-08T11:55:14.031Z,46.40
2017-07-08T11:57:40.482Z,47.00
2017-07-08T12:00:07.863Z,47.50
2017-07-08T12:05:31.865Z,47.10
2017-07-08T12:07:58.380Z,47.20
2017-07-08T12:10:24.883Z,46.80
2017-07-08T12:12:51.331Z,46.90
2017-07-08T12:15:18.551Z,47.50
2017-07-08T12:17:45.014Z,46.80
2017-07-08T12:20:11.626Z,46.80
2017-07-08T12:22:38.092Z,46.20
2017-07-08T12:25:04.651Z,46.00
2017-07-08T12:27:31.594Z,46.30
2017-07-08T12:29:58.032Z,47.10
2017-07-08T12:32:24.625Z,47.10
2017-07-08T12:34:51.185Z,47.80
2017-07-08T12:37:17.645Z,47.90
2017-07-08T12:39:44.109Z,47.20
2017-07-08T12:42:10.655Z,47.50
2017-07-08T12:44:38.914Z,48.00
2017-07-08T12:47:05.362Z,49.30
2017-07-08T12:49:31.968Z,48.60
2017-07-08T12:51:58.463Z,49.40
2017-07-08T12:54:24.935Z,48.50
2017-07-08T12:56:51.439Z,48.10
2017-07-08T12:59:17.924Z,48.70
2017-07-08T13:01:44.556Z,48.80
2017-07-08T13:04:11.065Z,48.60
2017-07-08T13:06:37.564Z,48.00
2017-07-08T13:09:04.130Z,47.80
2017-07-08T13:11:30.686Z,48.50
2017-07-08T13:13:57.131Z,48.60
2017-07-08T13:16:24.313Z,49.10
2017-07-08T13:18:50.786Z,49.00
2017-07-08T13:21:17.536Z,48.70
2017-07-08T13:23:44.693Z,47.90
2017-07-08T13:26:11.190Z,47.80
2017-07-08T13:28:37.831Z,47.80
2017-07-08T13:31:04.584Z,47.50
2017-07-08T13:33:31.059Z,47.20
2017-07-08T13:35:57.557Z,47.50
2017-07-08T13:38:23.991Z,46.90
2017-07-08T13:40:50.719Z,46.70
2017-07-08T13:43:17.185Z,47.50
2017-07-08T13:45:43.635Z,47.90
2017-07-08T13:48:10.192Z,47.50
2017-07-08T13:50:36.746Z,47.50
2017-07-08T13:53:03.305Z,47.90
2017-07-08T13:55:29.776Z,49.50
2017-07-08T13:57:56.245Z,48.20
2017-07-08T14:00:37.591Z,48.60
2017-07-08T14:03:04.791Z,47.50
2017-07-08T14:05:31.252Z,47.50
2017-07-08T14:07:57.689Z,48.00
2017-07-08T14:10:24.337Z,46.70
2017-07-08T14:12:51.503Z,47.10
2017-07-08T14:15:18.944Z,47.40
2017-07-08T14:17:45.639Z,47.40
2017-07-08T14:20:12.849Z,48.00
2017-07-08T14:22:39.296Z,47.30
2017-07-08T14:25:05.951Z,47.00
2017-07-08T14:27:32.441Z,47.00
2017-07-08T14:29:58.913Z,47.60
2017-07-08T14:32:25.526Z,48.50
2017-07-08T14:34:52.201Z,49.00
2017-07-08T14:37:18.746Z,49.30
2017-07-08T14:39:45.247Z,48.90
2017-07-08T14:42:11.758Z,49.50
2017-07-08T14:44:38.222Z,49.20
2017-07-08T14:47:04.675Z,49.30
2017-07-08T14:49:31.186Z,48.90
2017-07-08T14:51:57.628Z,49.90
2017-07-08T14:54:24.099Z,50.10
2017-07-08T14:56:50.582Z,49.60
2017-07-08T14:59:17.876Z,49.20
2017-07-08T15:01:44.348Z,49.10
2017-07-08T15:04:10.777Z,49.10
2017-07-08T15:06:37.250Z,48.30
2017-07-08T15:09:03.905Z,48.20
2017-07-08T15:11:30.401Z,49.10
2017-07-08T15:13:56.818Z,49.30
2017-07-08T15:16:23.235Z,48.80
2017-07-08T15:18:49.727Z,48.90
2017-07-08T15:21:16.387Z,48.80
2017-07-08T15:23:42.948Z,47.70
2017-07-08T15:26:09.379Z,47.50
2017-07-08T15:28:37.476Z,48.70
2017-07-08T15:31:04.647Z,47.90
2017-07-08T15:33:31.836Z,48.10
2017-07-08T15:35:58.296Z,48.10
2017-07-08T15:38:24.756Z,48.10
2017-07-08T15:40:51.206Z,47.90
2017-07-08T15:43:17.740Z,47.90
2017-07-08T15:45:45.693Z,47.90
2017-07-08T15:48:12.198Z,47.90
2017-07-08T15:50:39.694Z,47.10
2017-07-08T15:53:06.174Z,47.10
2017-07-08T15:55:33.283Z,47.60
2017-07-08T15:57:59.722Z,47.80
2017-07-08T16:00:26.255Z,48.40
2017-07-08T16:02:52.750Z,48.50
2017-07-08T16:05:19.227Z,48.60
2017-07-08T16:07:45.756Z,48.40
2017-07-08T16:10:12.213Z,48.80
2017-07-08T16:12:38.717Z,49.60
2017-07-08T16:15:05.254Z,49.00
2017-07-08T16:17:32.462Z,49.50
2017-07-08T16:19:58.956Z,49.50
2017-07-08T16:22:25.570Z,50.10
2017-07-08T16:24:52.039Z,50.40
2017-07-08T16:27:18.984Z,50.80
2017-07-08T16:29:45.555Z,50.80
2017-07-08T16:32:11.987Z,50.20
2017-07-08T16:34:39.279Z,50.40
2017-07-08T16:37:05.732Z,50.40
2017-07-08T16:39:32.176Z,49.70
2017-07-08T16:41:59.350Z,49.60
2017-07-08T16:44:26.540Z,49.80
2017-07-08T16:46:53.015Z,49.70
2017-07-08T16:49:19.461Z,49.70
2017-07-08T16:51:45.925Z,50.40
2017-07-08T16:54:12.379Z,50.30
2017-07-08T16:56:38.919Z,50.20
2017-07-08T16:59:05.338Z,49.60
2017-07-08T17:01:32.547Z,49.40
2017-07-08T17:03:59.086Z,49.30
2017-07-08T17:06:26.377Z,48.70
2017-07-08T17:08:53.204Z,48.70
2017-07-08T17:11:19.699Z,48.70
2017-07-08T17:13:46.159Z,49.40
2017-07-08T17:16:12.583Z,50.00
2017-07-08T17:18:39.033Z,49.90
2017-07-08T17:21:05.854Z,49.50
2017-07-08T17:23:33.258Z,50.10
2017-07-08T17:25:59.706Z,49.80
2017-07-08T17:28:26.187Z,49.90
2017-07-08T17:30:52.679Z,50.30
2017-07-08T17:33:19.239Z,50.70
2017-07-08T17:35:45.700Z,50.30
2017-07-08T17:38:12.255Z,50.80
2017-07-08T17:40:38.711Z,51.70
2017-07-08T17:43:05.148Z,51.70
2017-07-08T17:45:32.309Z,52.80
2017-07-08T17:47:59.489Z,52.90
2017-07-08T17:50:25.921Z,52.90
2017-07-08T17:52:52.434Z,54.10
2017-07-08T17:55:18.869Z,54.10
2017-07-08T17:57:46.071Z,53.90
2017-07-08T18:00:12.727Z,53.90
2017-07-08T18:02:39.271Z,54.40
2017-07-08T18:05:05.692Z,55.10
2017-07-08T18:07:32.120Z,55.30
2017-07-08T18:09:58.595Z,55.00
2017-07-08T18:12:25.072Z,54.80
2017-07-08T18:14:52.233Z,55.10
2017-07-08T18:17:19.467Z,56.10
2017-07-08T18:19:45.928Z,55.70
2017-07-08T18:22:12.457Z,56.30
2017-07-08T18:24:39.377Z,56.90
2017-07-08T18:27:06.519Z,57.20
2017-07-08T18:29:33.049Z,57.20
2017-07-08T18:31:59.610Z,57.20
2017-07-08T18:34:26.046Z,57.70
2017-07-08T18:36:53.556Z,58.20
2017-07-08T18:39:19.981Z,58.20
2017-07-08T18:41:47.193Z,58.70
2017-07-08T18:44:13.731Z,58.60
2017-07-08T18:46:40.221Z,58.70
2017-07-08T18:49:06.705Z,58.90
2017-07-08T18:51:33.305Z,59.20
2017-07-08T18:53:59.862Z,59.60
2017-07-08T18:56:26.337Z,59.90
2017-07-08T18:58:52.834Z,60.40
2017-07-08T19:01:20.083Z,61.80
2017-07-08T19:03:46.626Z,61.40
2017-07-08T19:06:13.050Z,61.90
2017-07-08T19:08:40.292Z,63.00
2017-07-08T19:11:06.750Z,62.90
2017-07-08T19:13:33.210Z,63.40
2017-07-08T19:15:59.809Z,64.00
2017-07-08T19:18:26.367Z,65.00
2017-07-08T19:20:52.869Z,66.00
2017-07-08T19:23:19.386Z,66.60
2017-07-08T19:25:45.942Z,67.30
2017-07-08T19:28:12.412Z,68.10
2017-07-08T19:30:38.955Z,68.80
2017-07-08T19:33:05.415Z,69.40
2017-07-08T19:35:31.889Z,69.90
2017-07-08T19:37:58.499Z,70.30
2017-07-08T19:40:24.965Z,70.60
2017-07-08T19:42:52.155Z,71.30
2017-07-08T19:45:18.611Z,71.20
2017-07-08T19:47:45.887Z,72.10
2017-07-08T19:50:12.447Z,72.90
2017-07-08T19:52:39.628Z,72.50
2017-07-08T19:55:06.101Z,72.70
2017-07-08T19:57:32.633Z,73.00
2017-07-08T19:59:59.192Z,73.80
2017-07-08T20:02:26.276Z,74.30
2017-07-08T20:04:52.814Z,74.60
2017-07-08T20:07:19.378Z,74.90
2017-07-08T20:09:45.845Z,75.60
2017-07-08T20:12:12.495Z,76.00
2017-07-08T20:14:39.054Z,76.20
2017-07-08T20:17:05.610Z,76.70
2017-07-08T20:19:32.095Z,77.00
2017-07-08T20:21:58.563Z,77.40
2017-07-08T20:24:25.028Z,77.50
2017-07-08T20:26:52.135Z,77.70
2017-07-08T20:29:19.360Z,79.00
2017-07-08T20:31:45.828Z,78.20
2017-07-08T20:34:12.317Z,78.30
2017-07-08T20:36:39.497Z,78.80
2017-07-08T20:39:06.767Z,79.00
2017-07-08T20:41:34.061Z,78.60
2017-07-08T20:44:00.588Z,79.30
2017-07-08T20:46:27.178Z,79.50
2017-07-08T20:48:53.644Z,79.80
2017-07-08T20:51:20.121Z,80.10
2017-07-08T20:53:46.633Z,80.30
2017-07-08T20:56:13.207Z,80.50
2017-07-08T20:58:40.072Z,80.60
2017-07-08T21:01:06.630Z,80.90
2017-07-08T21:03:33.145Z,81.00
2017-07-08T21:06:00.675Z,81.20
2017-07-08T21:08:27.590Z,81.50
2017-07-08T21:10:54.241Z,81.60
2017-07-08T21:13:21.570Z,81.70
2017-07-08T21:15:49.050Z,81.80
2017-07-08T21:18:15.610Z,81.90
2017-07-08T21:20:42.166Z,82.00
2017-07-08T21:23:09.968Z,82.00
2017-07-08T21:25:36.920Z,82.20
2017-07-08T21:28:03.434Z,82.50
2017-07-08T21:30:29.998Z,82.70
2017-07-08T21:32:56.475Z,82.60
2017-07-08T21:35:23.716Z,82.80
2017-07-08T21:37:50.205Z,82.70
2017-07-08T21:40:17.497Z,82.70
2017-07-08T21:42:44.158Z,82.60
2017-07-08T21:45:10.725Z,82.70
2017-07-08T21:47:37.480Z,82.80
2017-07-08T21:50:04.141Z,82.60
2017-07-08T21:52:30.903Z,82.30
2017-07-08T21:54:57.668Z,82.30
2017-07-08T21:57:25.043Z,82.60
2017-07-08T21:59:51.910Z,82.30
2017-07-08T22:02:18.554Z,82.50
2017-07-08T22:04:45.842Z,82.80
2017-07-08T22:07:12.404Z,82.80
2017-07-08T22:09:40.190Z,82.70
2017-07-08T22:12:07.364Z,83.10
2017-07-08T22:14:34.409Z,83.10
2017-07-08T22:17:01.807Z,83.40
2017-07-08T22:19:28.369Z,83.30
2017-07-08T22:21:55.027Z,83.80
2017-07-08T22:24:21.692Z,84.10
2017-07-08T22:26:48.246Z,84.50
2017-07-08T22:29:14.805Z,84.80
2017-07-08T22:31:43.375Z,84.80
2017-07-08T22:34:09.949Z,85.10
2017-07-08T22:36:37.154Z,85.10
2017-07-08T22:39:03.801Z,85.00
2017-07-08T22:41:30.459Z,85.20
2017-07-08T22:43:58.859Z,85.20
2017-07-08T22:46:25.520Z,85.30
2017-07-08T22:48:52.596Z,85.40
2017-07-08T22:51:19.111Z,85.30
2017-07-08T22:53:45.708Z,85.30
2017-07-08T22:56:12.267Z,85.30
2017-07-08T22:58:38.928Z,85.60
2017-07-08T23:01:05.873Z,85.70
2017-07-08T23:03:32.337Z,85.90
2017-07-08T23:05:59.626Z,86.10
2017-07-08T23:08:26.181Z,86.10
2017-07-08T23:10:52.633Z,86.10
2017-07-08T23:13:19.073Z,86.00
2017-07-08T23:15:45.655Z,85.90
2017-07-08T23:18:12.211Z,85.90
2017-07-08T23:20:38.819Z,86.10
2017-07-08T23:23:05.230Z,86.00
2017-07-08T23:25:31.785Z,85.60
2017-07-08T23:27:58.681Z,85.50
2017-07-08T23:30:25.211Z,85.60
2017-07-08T23:32:51.683Z,85.70
2017-07-08T23:35:18.223Z,85.50
2017-07-08T23:37:44.709Z,85.40
2017-07-08T23:40:11.238Z,85.40
2017-07-08T23:42:37.797Z,85.40
2017-07-08T23:45:04.355Z,85.50
2017-07-08T23:47:30.806Z,85.50
2017-07-08T23:49:58.022Z,85.20
2017-07-08T23:52:24.448Z,85.20
2017-07-08T23:54:51.002Z,85.50
2017-07-08T23:57:17.480Z,85.70
2017-07-08T23:59:44.022Z,85.90
